createdAt,value
2018-07-22T00:00:24.067Z,100563.80
2018-07-22T00:02:53.086Z,100562.56
2018-07-22T00:05:21.623Z,100564.51
2018-07-22T00:07:51.384Z,100556.89
2018-07-22T00:10:27.400Z,100561.67
2018-07-22T00:12:56.312Z,100563.62
2018-07-22T00:15:25.555Z,100565.39
2018-07-22T00:17:54.785Z,100564.86
2018-07-22T00:20:23.332Z,100567.66
2018-07-22T00:22:51.875Z,100564.36
2018-07-22T00:25:20.427Z,100574.60
2018-07-22T00:27:50.121Z,100569.53
2018-07-22T00:30:18.616Z,100570.28
2018-07-22T00:32:47.312Z,100561.84
2018-07-22T00:35:16.099Z,100564.25
2018-07-22T00:37:44.689Z,100558.51
2018-07-22T00:40:13.195Z,100560.45
2018-07-22T00:42:42.288Z,100564.70
2018-07-22T00:45:13.808Z,100561.36
2018-07-22T00:47:44.090Z,100561.18
2018-07-22T00:50:13.196Z,100557.39
2018-07-22T00:52:41.808Z,100557.48
2018-07-22T00:55:10.827Z,100563.02
2018-07-22T00:57:39.324Z,100558.34
2018-07-22T01:00:08.871Z,100561.81
2018-07-22T01:02:37.687Z,100561.59
2018-07-22T01:05:06.647Z,100564.56
2018-07-22T01:07:37.240Z,100564.95
2018-07-22T01:10:07.207Z,100572.53
2018-07-22T01:12:35.809Z,100572.02
2018-07-22T01:15:05.213Z,100573.83
2018-07-22T01:17:34.558Z,100567.67
2018-07-22T01:20:05.140Z,100570.88
2018-07-22T01:22:33.955Z,100575.70
2018-07-22T01:25:08.969Z,100578.11
2018-07-22T01:27:37.556Z,100576.07
2018-07-22T01:30:07.807Z,100579.23
2018-07-22T01:32:36.357Z,100575.30
2018-07-22T01:35:04.971Z,100570.73
2018-07-22T01:37:33.587Z,100575.97
2018-07-22T01:40:02.275Z,100575.30
2018-07-22T01:42:30.887Z,100580.54
2018-07-22T01:44:59.449Z,100582.66
2018-07-22T01:47:28.601Z,100582.20
2018-07-22T01:49:57.096Z,100583.84
2018-07-22T01:52:26.108Z,100581.11
2018-07-22T01:54:55.266Z,100582.70
2018-07-22T01:57:23.865Z,100581.40
2018-07-22T01:59:52.448Z,100579.77
2018-07-22T02:02:21.087Z,100579.20
2018-07-22T02:04:50.686Z,100579.14
2018-07-22T02:07:19.305Z,100581.20
2018-07-22T02:09:48.631Z,100589.63
2018-07-22T02:12:18.466Z,100589.84
2018-07-22T02:14:46.969Z,100588.31
2018-07-22T02:17:15.556Z,100594.30
2018-07-22T02:19:44.147Z,100587.11
2018-07-22T02:22:13.035Z,100591.14
2018-07-22T02:24:42.492Z,100585.52
2018-07-22T02:27:11.107Z,100588.70
2018-07-22T02:29:39.569Z,100586.89
2018-07-22T02:32:08.352Z,100591.46
2018-07-22T02:34:37.074Z,100589.91
2018-07-22T02:37:05.572Z,100591.95
2018-07-22T02:39:34.184Z,100580.63
2018-07-22T02:42:02.724Z,100585.86
2018-07-22T02:44:31.328Z,100584.16
2018-07-22T02:46:59.825Z,100585.09
2018-07-22T02:49:28.391Z,100587.17
2018-07-22T02:51:57.797Z,100587.07
2018-07-22T02:54:26.684Z,100586.33
2018-07-22T02:56:55.828Z,100585.94
2018-07-22T02:59:24.327Z,100585.19
2018-07-22T03:01:52.766Z,100589.36
2018-07-22T03:04:21.647Z,100583.73
2018-07-22T03:06:50.164Z,100581.22
2018-07-22T03:09:18.779Z,100584.02
2018-07-22T03:11:47.306Z,100587.59
2018-07-22T03:14:16.453Z,100590.57
2018-07-22T03:16:44.961Z,100594.21
2018-07-22T03:19:13.633Z,100593.19
2018-07-22T03:21:42.164Z,100590.28
2018-07-22T03:24:10.736Z,100597.30
2018-07-22T03:26:39.234Z,100597.08
2018-07-22T03:29:08.576Z,100605.11
2018-07-22T03:31:37.893Z,100605.73
2018-07-22T03:34:06.810Z,100607.15
2018-07-22T03:36:35.705Z,100612.16
2018-07-22T03:39:06.030Z,100614.42
2018-07-22T03:41:34.585Z,100610.05
2018-07-22T03:44:03.089Z,100617.84
2018-07-22T03:46:31.599Z,100621.25
2018-07-22T03:49:00.115Z,100620.49
2018-07-22T03:51:28.654Z,100618.50
2018-07-22T03:53:57.228Z,100618.72
2018-07-22T03:56:25.730Z,100623.52
2018-07-22T03:58:54.185Z,100617.89
2018-07-22T04:01:22.774Z,100625.28
2018-07-22T04:03:51.333Z,100623.19
2018-07-22T04:06:19.792Z,100629.21
2018-07-22T04:08:48.291Z,100633.59
2018-07-22T04:11:16.788Z,100632.12
2018-07-22T04:13:45.328Z,100629.21
2018-07-22T04:16:13.799Z,100626.09
2018-07-22T04:18:51.526Z,100629.32
2018-07-22T04:21:20.584Z,100628.02
2018-07-22T04:23:50.067Z,100629.16
2018-07-22T04:26:18.997Z,100631.72
2018-07-22T04:28:47.549Z,100632.19
2018-07-22T04:31:16.180Z,100636.58
2018-07-22T04:33:44.756Z,100630.50
2018-07-22T04:36:13.713Z,100635.81
2018-07-22T04:38:43.086Z,100637.25
2018-07-22T04:41:13.044Z,100632.58
2018-07-22T04:43:42.922Z,100637.52
2018-07-22T04:46:11.956Z,100634.05
2018-07-22T04:48:40.532Z,100636.44
2018-07-22T04:51:09.033Z,100633.09
2018-07-22T04:53:37.683Z,100633.16
2018-07-22T04:56:06.209Z,100638.92
2018-07-22T04:58:34.845Z,100635.62
2018-07-22T05:01:03.370Z,100640.72
2018-07-22T05:03:31.851Z,100641.64
2018-07-22T05:06:00.376Z,100646.31
2018-07-22T05:08:28.978Z,100646.64
2018-07-22T05:10:57.567Z,100642.09
2018-07-22T05:13:26.153Z,100651.38
2018-07-22T05:15:54.781Z,100644.21
2018-07-22T05:18:23.844Z,100648.99
2018-07-22T05:20:52.352Z,100650.53
2018-07-22T05:23:21.511Z,100652.69
2018-07-22T05:25:49.970Z,100656.62
2018-07-22T05:28:19.388Z,100657.37
2018-07-22T05:30:47.845Z,100658.48
2018-07-22T05:33:17.342Z,100660.53
2018-07-22T05:35:46.030Z,100664.69
2018-07-22T05:38:15.308Z,100661.77
2018-07-22T05:40:44.106Z,100663.20
2018-07-22T05:43:12.667Z,100665.94
2018-07-22T05:45:41.260Z,100663.93
2018-07-22T05:48:09.867Z,100662.95
2018-07-22T05:50:38.982Z,100662.18
2018-07-22T05:53:08.377Z,100660.52
2018-07-22T05:55:37.146Z,100661.70
2018-07-22T05:58:06.605Z,100663.83
2018-07-22T06:00:35.090Z,100660.32
2018-07-22T06:03:05.478Z,100663.19
2018-07-22T06:05:36.586Z,100668.11
2018-07-22T06:08:05.467Z,100677.14
2018-07-22T06:10:33.917Z,100676.98
2018-07-22T06:13:02.460Z,100680.30
2018-07-22T06:15:30.963Z,100678.48
2018-07-22T06:18:00.635Z,100680.53
2018-07-22T06:20:29.136Z,100682.74
2018-07-22T06:22:57.628Z,100680.87
2018-07-22T06:25:26.570Z,100677.07
2018-07-22T06:27:55.038Z,100678.12
2018-07-22T06:30:23.868Z,100673.88
2018-07-22T06:32:52.639Z,100673.41
2018-07-22T06:35:21.516Z,100675.31
2018-07-22T06:37:50.445Z,100673.80
2018-07-22T06:40:19.645Z,100668.66
2018-07-22T06:42:49.318Z,100675.78
2018-07-22T06:45:18.757Z,100676.82
2018-07-22T06:47:47.974Z,100677.55
2018-07-22T06:50:16.578Z,100675.70
2018-07-22T06:52:47.343Z,100672.80
2018-07-22T06:55:17.840Z,100670.66
2018-07-22T06:57:46.366Z,100680.20
2018-07-22T07:00:15.953Z,100673.09
2018-07-22T07:02:44.856Z,100678.53
2018-07-22T07:05:13.893Z,100671.96
2018-07-22T07:07:43.640Z,100673.47
2018-07-22T07:10:12.278Z,100678.14
2018-07-22T07:12:40.815Z,100674.78
2018-07-22T07:15:09.468Z,100672.79
2018-07-22T07:17:38.123Z,100671.74
2018-07-22T07:20:06.661Z,100667.31
2018-07-22T07:22:35.877Z,100670.68
2018-07-22T07:25:04.931Z,100670.31
2018-07-22T07:27:35.085Z,100673.59
2018-07-22T07:30:04.589Z,100672.92
2018-07-22T07:32:35.601Z,100675.82
2018-07-22T07:35:05.075Z,100674.97
2018-07-22T07:37:33.833Z,100678.53
2018-07-22T07:40:02.364Z,100682.35
2018-07-22T07:42:31.889Z,100688.26
2018-07-22T07:45:01.606Z,100686.48
2018-07-22T07:47:32.230Z,100688.00
2018-07-22T07:50:00.843Z,100688.47
2018-07-22T07:52:29.532Z,100685.17
2018-07-22T07:55:00.236Z,100686.79
2018-07-22T07:57:28.827Z,100679.81
2018-07-22T07:59:58.704Z,100680.20
2018-07-22T08:02:27.370Z,100686.58
2018-07-22T08:04:56.272Z,100684.66
2018-07-22T08:07:24.988Z,100686.14
2018-07-22T08:09:53.622Z,100686.06
2018-07-22T08:12:22.303Z,100689.06
2018-07-22T08:14:50.993Z,100694.67
2018-07-22T08:17:19.678Z,100692.02
2018-07-22T08:19:48.537Z,100687.77
2018-07-22T08:22:17.683Z,100692.80
2018-07-22T08:24:47.769Z,100687.20
2018-07-22T08:27:16.361Z,100690.23
2018-07-22T08:29:45.046Z,100689.38
2018-07-22T08:32:13.470Z,100686.10
2018-07-22T08:34:42.110Z,100693.20
2018-07-22T08:37:10.692Z,100693.72
2018-07-22T08:39:39.321Z,100702.03
2018-07-22T08:42:08.011Z,100696.47
2018-07-22T08:44:37.594Z,100699.92
2018-07-22T08:47:06.467Z,100702.42
2018-07-22T08:49:35.048Z,100704.33
2018-07-22T08:52:04.133Z,100706.45
2018-07-22T08:54:32.748Z,100702.16
2018-07-22T08:57:01.358Z,100695.41
2018-07-22T08:59:30.089Z,100704.75
2018-07-22T09:01:58.609Z,100722.56
2018-07-22T09:04:28.321Z,100717.50
2018-07-22T09:06:56.927Z,100715.55
2018-07-22T09:09:25.553Z,100724.09
2018-07-22T09:11:54.341Z,100720.48
2018-07-22T09:14:22.909Z,100719.17
2018-07-22T09:16:51.344Z,100724.09
2018-07-22T09:19:19.791Z,100726.77
2018-07-22T09:21:48.624Z,100730.59
2018-07-22T09:24:17.689Z,100732.55
2018-07-22T09:26:46.228Z,100738.59
2018-07-22T09:29:14.940Z,100738.28
2018-07-22T09:31:43.437Z,100746.31
2018-07-22T09:34:12.204Z,100748.14
2018-07-22T09:36:40.888Z,100747.85
2018-07-22T09:39:11.854Z,100747.08
2018-07-22T09:41:41.143Z,100747.00
2018-07-22T09:44:09.616Z,100746.36
2018-07-22T09:46:38.187Z,100749.08
2018-07-22T09:49:06.624Z,100752.95
2018-07-22T09:51:35.116Z,100751.67
2018-07-22T09:54:04.444Z,100751.04
2018-07-22T09:56:34.994Z,100753.75
2018-07-22T09:59:04.346Z,100753.88
2018-07-22T10:01:32.933Z,100751.06
2018-07-22T10:04:01.489Z,100752.67
2018-07-22T10:06:30.007Z,100746.50
2018-07-22T10:08:58.742Z,100750.99
2018-07-22T10:11:28.056Z,100751.19
2018-07-22T10:13:58.647Z,100751.35
2018-07-22T10:16:27.441Z,100741.20
2018-07-22T10:18:56.809Z,100746.50
2018-07-22T10:21:27.104Z,100749.98
2018-07-22T10:23:55.822Z,100754.28
2018-07-22T10:26:24.412Z,100750.99
2018-07-22T10:28:53.809Z,100757.23
2018-07-22T10:31:22.806Z,100759.30
2018-07-22T10:33:52.077Z,100760.38
2018-07-22T10:36:21.039Z,100758.01
2018-07-22T10:38:52.285Z,100764.39
2018-07-22T10:41:21.245Z,100754.46
2018-07-22T10:43:49.895Z,100759.39
2018-07-22T10:46:18.424Z,100756.19
2018-07-22T10:48:47.391Z,100751.52
2018-07-22T10:51:16.059Z,100759.58
2018-07-22T10:53:47.241Z,100753.86
2018-07-22T10:56:17.050Z,100749.52
2018-07-22T10:58:46.957Z,100749.77
2018-07-22T11:01:16.429Z,100747.80
2018-07-22T11:03:45.049Z,100741.35
2018-07-22T11:06:14.106Z,100746.39
2018-07-22T11:08:42.610Z,100730.19
2018-07-22T11:11:11.209Z,100728.11
2018-07-22T11:13:39.745Z,100728.52
2018-07-22T11:16:08.944Z,100724.61
2018-07-22T11:18:37.476Z,100721.13
2018-07-22T11:21:06.081Z,100720.20
2018-07-22T11:23:35.446Z,100719.95
2018-07-22T11:26:04.210Z,100715.81
2018-07-22T11:28:33.301Z,100714.84
2018-07-22T11:31:02.851Z,100711.87
2018-07-22T11:33:32.201Z,100718.31
2018-07-22T11:36:00.917Z,100716.01
2018-07-22T11:38:29.605Z,100710.97
2018-07-22T11:40:58.180Z,100709.17
2018-07-22T11:43:26.758Z,100708.26
2018-07-22T11:45:55.538Z,100711.41
2018-07-22T11:48:25.090Z,100706.70
2018-07-22T11:50:53.600Z,100715.71
2018-07-22T11:53:22.169Z,100705.88
2018-07-22T11:55:50.644Z,100701.80
2018-07-22T11:58:20.008Z,100701.22
2018-07-22T12:00:49.769Z,100706.64
2018-07-22T12:03:20.327Z,100698.44
2018-07-22T12:05:49.313Z,100700.23
2018-07-22T12:08:18.603Z,100696.98
2018-07-22T12:10:47.200Z,100686.08
2018-07-22T12:13:15.760Z,100687.56
2018-07-22T12:15:44.564Z,100686.23
2018-07-22T12:18:13.153Z,100686.95
2018-07-22T12:20:42.014Z,100677.81
2018-07-22T12:23:11.461Z,100673.72
2018-07-22T12:25:39.981Z,100680.66
2018-07-22T12:28:08.621Z,100681.39
2018-07-22T12:30:37.163Z,100673.71
2018-07-22T12:33:05.721Z,100684.05
2018-07-22T12:35:34.366Z,100676.02
2018-07-22T12:38:03.048Z,100677.42
2018-07-22T12:40:31.624Z,100669.86
2018-07-22T12:43:00.220Z,100674.36
2018-07-22T12:45:29.364Z,100673.44
2018-07-22T12:47:58.852Z,100680.43
2018-07-22T12:50:28.349Z,100670.24
2018-07-22T12:52:57.910Z,100670.56
2018-07-22T12:55:26.760Z,100670.87
2018-07-22T12:57:55.381Z,100662.88
2018-07-22T13:00:23.959Z,100675.19
2018-07-22T13:02:52.448Z,100672.69
2018-07-22T13:05:21.880Z,100667.80
2018-07-22T13:07:52.014Z,100669.66
2018-07-22T13:10:21.691Z,100669.73
2018-07-22T13:12:50.434Z,100675.91
2018-07-22T13:15:19.063Z,100672.52
2018-07-22T13:17:47.680Z,100675.61
2018-07-22T13:20:16.797Z,100671.09
2018-07-22T13:22:45.301Z,100669.66
2018-07-22T13:25:16.412Z,100670.79
2018-07-22T13:27:46.017Z,100674.65
2018-07-22T13:30:14.646Z,100677.39
2018-07-22T13:32:43.193Z,100680.26
2018-07-22T13:35:12.088Z,100671.99
2018-07-22T13:37:41.329Z,100674.70
2018-07-22T13:40:10.926Z,100672.94
2018-07-22T13:42:40.622Z,100676.72
2018-07-22T13:45:09.148Z,100682.81
2018-07-22T13:47:37.645Z,100679.83
2018-07-22T13:50:06.641Z,100679.25
2018-07-22T13:52:36.313Z,100688.27
2018-07-22T13:55:04.852Z,100678.05
2018-07-22T13:57:33.588Z,100684.67
2018-07-22T14:00:02.176Z,100682.34
2018-07-22T14:02:30.811Z,100686.80
2018-07-22T14:04:59.421Z,100692.95
2018-07-22T14:07:28.114Z,100681.41
2018-07-22T14:09:57.436Z,100682.97
2018-07-22T14:12:25.952Z,100696.17
2018-07-22T14:14:54.979Z,100689.81
2018-07-22T14:17:23.490Z,100692.56
2018-07-22T14:19:52.820Z,100699.81
2018-07-22T14:22:21.784Z,100703.13
2018-07-22T14:24:50.429Z,100693.45
2018-07-22T14:27:19.110Z,100705.23
2018-07-22T14:29:47.716Z,100701.42
2018-07-22T14:32:16.651Z,100701.36
2018-07-22T14:34:45.307Z,100714.88
2018-07-22T14:37:14.011Z,100716.48
2018-07-22T14:39:42.703Z,100719.56
2018-07-22T14:42:11.442Z,100706.20
2018-07-22T14:44:40.089Z,100708.31
2018-07-22T14:47:09.537Z,100703.33
2018-07-22T14:49:38.201Z,100712.39
2018-07-22T14:52:06.806Z,100712.59
2018-07-22T14:54:35.751Z,100711.66
2018-07-22T14:57:04.490Z,100705.33
2018-07-22T14:59:33.844Z,100703.59
2018-07-22T15:02:02.457Z,100708.09
2018-07-22T15:04:32.912Z,100705.38
2018-07-22T15:07:01.478Z,100709.09
2018-07-22T15:09:30.111Z,100715.35
2018-07-22T15:11:59.487Z,100706.99
2018-07-22T15:14:28.903Z,100711.59
2018-07-22T15:16:57.672Z,100710.97
2018-07-22T15:19:26.371Z,100712.87
2018-07-22T15:21:55.059Z,100713.67
2018-07-22T15:24:24.511Z,100715.95
2018-07-22T15:26:53.126Z,100718.00
2018-07-22T15:29:21.824Z,100719.53
2018-07-22T15:31:50.579Z,100724.13
2018-07-22T15:34:19.204Z,100724.95
2018-07-22T15:36:47.876Z,100733.75
2018-07-22T15:39:16.619Z,100727.42
2018-07-22T15:41:45.208Z,100730.48
2018-07-22T15:44:13.977Z,100726.78
2018-07-22T15:46:42.592Z,100723.14
2018-07-22T15:49:11.202Z,100724.11
2018-07-22T15:51:39.863Z,100724.02
2018-07-22T15:54:08.444Z,100724.33
2018-07-22T15:56:36.903Z,100727.27
2018-07-22T15:59:05.734Z,100726.52
2018-07-22T16:01:34.330Z,100726.66
2018-07-22T16:04:02.887Z,100727.73
2018-07-22T16:06:31.593Z,100724.48
2018-07-22T16:09:00.862Z,100723.03
2018-07-22T16:11:29.541Z,100727.26
2018-07-22T16:13:58.102Z,100732.07
2018-07-22T16:16:27.816Z,100725.81
2018-07-22T16:18:58.590Z,100724.88
2018-07-22T16:21:28.157Z,100727.38
2018-07-22T16:23:56.838Z,100729.22
2018-07-22T16:26:25.489Z,100742.27
2018-07-22T16:28:54.320Z,100740.62
2018-07-22T16:31:22.874Z,100738.92
2018-07-22T16:33:51.522Z,100739.52
2018-07-22T16:36:21.013Z,100742.77
2018-07-22T16:38:49.676Z,100738.55
2018-07-22T16:41:19.078Z,100738.31
2018-07-22T16:43:48.087Z,100737.84
2018-07-22T16:46:16.720Z,100735.57
2018-07-22T16:48:45.441Z,100734.95
2018-07-22T16:51:15.547Z,100743.83
2018-07-22T16:53:45.111Z,100739.34
2018-07-22T16:56:13.683Z,100739.63
2018-07-22T16:58:53.065Z,100738.55
2018-07-22T17:01:21.739Z,100732.77
2018-07-22T17:03:50.266Z,100728.31
2018-07-22T17:06:19.673Z,100732.30
2018-07-22T17:08:48.325Z,100733.77
2018-07-22T17:11:17.678Z,100740.61
2018-07-22T17:13:46.462Z,100746.36
2018-07-22T17:16:15.212Z,100748.41
2018-07-22T17:18:43.806Z,100741.32
2018-07-22T17:21:13.030Z,100743.84
2018-07-22T17:23:41.782Z,100749.62
2018-07-22T17:26:10.420Z,100746.73
2018-07-22T17:28:39.005Z,100746.38
2018-07-22T17:31:07.916Z,100752.25
2018-07-22T17:33:40.271Z,100750.80
2018-07-22T17:36:08.926Z,100741.97
2018-07-22T17:38:37.578Z,100749.69
2018-07-22T17:41:07.374Z,100751.73
2018-07-22T17:43:36.249Z,100753.02
2018-07-22T17:46:05.617Z,100757.09
2018-07-22T17:48:34.176Z,100755.23
2018-07-22T17:51:02.988Z,100757.50
2018-07-22T17:53:31.575Z,100750.66
2018-07-22T17:56:01.431Z,100757.16
2018-07-22T17:58:30.146Z,100758.34
2018-07-22T18:00:58.819Z,100757.45
2018-07-22T18:03:32.051Z,100760.38
2018-07-22T18:06:01.824Z,100770.41
2018-07-22T18:08:30.613Z,100768.98
2018-07-22T18:10:59.080Z,100768.56
2018-07-22T18:13:28.553Z,100771.52
2018-07-22T18:15:57.672Z,100786.61
2018-07-22T18:18:26.333Z,100780.84
2018-07-22T18:20:55.050Z,100787.34
2018-07-22T18:23:23.622Z,100790.45
2018-07-22T18:25:52.344Z,100789.95
2018-07-22T18:28:20.985Z,100798.41
2018-07-22T18:30:50.205Z,100796.40
2018-07-22T18:33:18.797Z,100801.11
2018-07-22T18:35:47.347Z,100799.04
2018-07-22T18:38:16.876Z,100798.41
2018-07-22T18:40:45.447Z,100801.95
2018-07-22T18:43:15.032Z,100800.38
2018-07-22T18:45:43.645Z,100806.03
2018-07-22T18:48:12.257Z,100816.30
2018-07-22T18:50:41.448Z,100811.24
2018-07-22T18:53:09.982Z,100817.89
2018-07-22T18:55:38.757Z,100820.58
2018-07-22T18:58:08.193Z,100824.55
2018-07-22T19:00:37.381Z,100824.89
2018-07-22T19:03:06.024Z,100821.62
2018-07-22T19:05:34.727Z,100828.68
2018-07-22T19:08:03.477Z,100823.11
2018-07-22T19:10:32.336Z,100829.06
2018-07-22T19:13:00.985Z,100829.69
2018-07-22T19:15:30.127Z,100831.98
2018-07-22T19:17:58.766Z,100835.85
2018-07-22T19:20:28.216Z,100841.66
2018-07-22T19:22:56.884Z,100840.34
2018-07-22T19:25:26.097Z,100844.58
2018-07-22T19:27:55.505Z,100845.25
2018-07-22T19:30:25.425Z,100844.61
2018-07-22T19:32:54.465Z,100845.55
2018-07-22T19:35:23.024Z,100859.77
2018-07-22T19:37:51.773Z,100859.00
2018-07-22T19:40:20.511Z,100868.34
2018-07-22T19:42:49.153Z,100872.66
2018-07-22T19:45:18.047Z,100878.98
2018-07-22T19:47:47.291Z,100881.61
2018-07-22T19:50:16.162Z,100887.16
2018-07-22T19:52:44.924Z,100890.12
2018-07-22T19:55:14.118Z,100892.25
2018-07-22T19:57:42.760Z,100900.73
2018-07-22T20:00:11.389Z,100895.67
2018-07-22T20:02:40.813Z,100897.53
2018-07-22T20:05:09.576Z,100899.42
2018-07-22T20:07:38.276Z,100907.14
2018-07-22T20:10:06.875Z,100908.06
2018-07-22T20:12:36.342Z,100909.19
2018-07-22T20:15:04.927Z,100910.97
2018-07-22T20:17:50.354Z,100915.97
2018-07-22T20:20:22.023Z,100916.34
2018-07-22T20:22:53.375Z,100916.58
2018-07-22T20:25:24.827Z,100921.64
2018-07-22T20:27:55.660Z,100923.23
2018-07-22T20:30:31.469Z,100920.89
2018-07-22T20:33:00.597Z,100926.62
2018-07-22T20:35:30.444Z,100931.48
2018-07-22T20:38:02.266Z,100939.64
2018-07-22T20:40:33.666Z,100942.36
2018-07-22T20:43:02.233Z,100944.32
2018-07-22T20:45:30.829Z,100946.56
2018-07-22T20:47:59.926Z,100943.52
2018-07-22T20:50:31.498Z,100946.92
2018-07-22T20:53:04.978Z,100948.89
2018-07-22T20:55:35.889Z,100945.87
2018-07-22T20:58:04.597Z,100947.66
2018-07-22T21:00:35.185Z,100950.34
2018-07-22T21:03:03.827Z,100956.52
2018-07-22T21:05:34.006Z,100955.09
2018-07-22T21:08:03.569Z,100955.73
2018-07-22T21:10:32.295Z,100962.23
2018-07-22T21:13:15.158Z,100963.37
2018-07-22T21:15:43.794Z,100963.37
2018-07-22T21:18:12.691Z,100966.14
2018-07-22T21:20:41.752Z,100965.22
2018-07-22T21:23:10.852Z,100968.98
2018-07-22T21:25:42.018Z,100965.36
2018-07-22T21:28:11.427Z,100972.22
2018-07-22T21:30:40.187Z,100974.23
2018-07-22T21:33:08.996Z,100969.53
2018-07-22T21:35:37.783Z,100975.94
2018-07-22T21:38:06.479Z,100986.59
2018-07-22T21:40:36.052Z,100985.73
2018-07-22T21:43:05.256Z,100990.53
2018-07-22T21:45:33.928Z,100991.73
2018-07-22T21:48:02.848Z,100987.73
2018-07-22T21:50:33.354Z,100991.50
2018-07-22T21:53:02.015Z,100989.20
2018-07-22T21:55:32.059Z,100990.98
2018-07-22T21:58:00.827Z,100997.33
2018-07-22T22:00:35.089Z,100993.00
2018-07-22T22:03:04.775Z,100994.12
2018-07-22T22:05:33.986Z,100999.83
2018-07-22T22:08:02.630Z,100992.19
2018-07-22T22:10:31.139Z,100993.34
2018-07-22T22:13:00.000Z,100999.08
2018-07-22T22:15:31.715Z,100993.20
2018-07-22T22:18:02.494Z,100998.45
2018-07-22T22:20:31.590Z,100996.45
2018-07-22T22:23:00.750Z,100994.75
2018-07-22T22:25:29.996Z,101000.85
2018-07-22T22:27:59.599Z,101002.63
2018-07-22T22:30:28.089Z,101001.38
2018-07-22T22:32:56.571Z,101002.79
2018-07-22T22:35:25.941Z,101004.10
2018-07-22T22:37:55.022Z,101001.70
2018-07-22T22:40:24.742Z,101004.20
2018-07-22T22:42:53.399Z,101006.20
2018-07-22T22:45:22.231Z,101002.03
2018-07-22T22:47:50.805Z,101005.34
2018-07-22T22:50:19.350Z,101008.59
2018-07-22T22:52:48.688Z,101001.66
2018-07-22T22:55:17.915Z,101000.02
2018-07-22T22:58:55.376Z,101004.58
2018-07-22T23:01:24.957Z,101004.34
2018-07-22T23:03:54.623Z,101004.62
2018-07-22T23:06:23.167Z,101003.31
2018-07-22T23:08:51.722Z,100999.48
2018-07-22T23:11:20.275Z,101006.95
2018-07-22T23:13:48.998Z,101006.31
2018-07-22T23:16:18.620Z,101006.77
2018-07-22T23:18:48.975Z,101003.37
2018-07-22T23:21:17.854Z,101003.77
2018-07-22T23:23:46.888Z,101008.38
2018-07-22T23:26:15.811Z,101005.00
2018-07-22T23:28:44.414Z,101003.75
2018-07-22T23:31:12.951Z,101010.70
2018-07-22T23:33:41.850Z,101008.45
2018-07-22T23:36:11.879Z,101006.29
2018-07-22T23:38:42.539Z,101005.06
2018-07-22T23:41:11.405Z,100998.85
2018-07-22T23:43:40.499Z,100999.37
2018-07-22T23:46:10.369Z,101002.48
2018-07-22T23:48:39.041Z,101003.13
2018-07-22T23:51:07.574Z,100999.65
2018-07-22T23:53:36.216Z,101001.47
2018-07-22T23:56:04.795Z,101004.03
2018-07-22T23:58:33.406Z,100998.19
